sensor_id;sensor_type;location;lat;lon;timestamp;pressure;altitude;pressure_sealevel;temperature;humidity
51147;BME280;37207;53.060;18.726;2023-04-08T00:02:04;101282.52;;;5.83;91.82
51147;BME280;37207;53.060;18.726;2023-04-08T00:04:30;101288.21;;;5.78;91.75
51147;BME280;37207;53.060;18.726;2023-04-08T00:06:56;101288.17;;;5.73;91.86
51147;BME280;37207;53.060;18.726;2023-04-08T00:09:22;101291.77;;;5.69;91.79
51147;BME280;37207;53.060;18.726;2023-04-08T00:11:48;101294.17;;;5.64;91.48
51147;BME280;37207;53.060;18.726;2023-04-08T00:14:14;101294.03;;;5.57;91.58
51147;BME280;37207;53.060;18.726;2023-04-08T00:16:40;101294.58;;;5.50;91.40
51147;BME280;37207;53.060;18.726;2023-04-08T00:19:06;101296.49;;;5.45;91.48
51147;BME280;37207;53.060;18.726;2023-04-08T00:21:32;101297.44;;;5.39;91.29
51147;BME280;37207;53.060;18.726;2023-04-08T00:23:58;101299.15;;;5.31;91.24
51147;BME280;37207;53.060;18.726;2023-04-08T00:26:24;101300.61;;;5.25;91.30
51147;BME280;37207;53.060;18.726;2023-04-08T00:28:51;101302.42;;;5.19;91.30
51147;BME280;37207;53.060;18.726;2023-04-08T00:31:17;101303.86;;;5.15;91.79
51147;BME280;37207;53.060;18.726;2023-04-08T00:33:43;101302.30;;;5.12;91.56
51147;BME280;37207;53.060;18.726;2023-04-08T00:36:09;101302.93;;;5.08;91.77
51147;BME280;37207;53.060;18.726;2023-04-08T00:38:35;101305.21;;;5.05;91.76
51147;BME280;37207;53.060;18.726;2023-04-08T00:41:01;101306.13;;;5.01;91.60
51147;BME280;37207;53.060;18.726;2023-04-08T00:43:27;101307.81;;;4.96;91.65
51147;BME280;37207;53.060;18.726;2023-04-08T00:45:53;101311.04;;;4.95;92.01
51147;BME280;37207;53.060;18.726;2023-04-08T00:48:19;101309.94;;;4.95;92.35
51147;BME280;37207;53.060;18.726;2023-04-08T00:50:45;101311.41;;;4.95;92.33
51147;BME280;37207;53.060;18.726;2023-04-08T00:53:17;101312.35;;;4.95;92.26
51147;BME280;37207;53.060;18.726;2023-04-08T00:55:43;101314.95;;;4.98;92.50
51147;BME280;37207;53.060;18.726;2023-04-08T00:58:10;101319.43;;;5.00;92.58
51147;BME280;37207;53.060;18.726;2023-04-08T01:00:39;101322.58;;;5.02;92.47
51147;BME280;37207;53.060;18.726;2023-04-08T01:03:17;101323.92;;;5.05;92.61
51147;BME280;37207;53.060;18.726;2023-04-08T01:05:58;101324.60;;;5.05;92.58
51147;BME280;37207;53.060;18.726;2023-04-08T01:08:26;101325.40;;;5.04;92.36
51147;BME280;37207;53.060;18.726;2023-04-08T01:10:58;101324.00;;;5.02;92.41
51147;BME280;37207;53.060;18.726;2023-04-08T01:13:29;101327.09;;;5.01;92.33
51147;BME280;37207;53.060;18.726;2023-04-08T01:15:56;101327.52;;;4.99;92.21
51147;BME280;37207;53.060;18.726;2023-04-08T01:18:22;101328.27;;;4.98;92.34
51147;BME280;37207;53.060;18.726;2023-04-08T01:20:49;101328.34;;;4.98;92.22
51147;BME280;37207;53.060;18.726;2023-04-08T01:23:48;101329.58;;;4.98;92.25
51147;BME280;37207;53.060;18.726;2023-04-08T01:26:22;101331.52;;;4.96;91.78
51147;BME280;37207;53.060;18.726;2023-04-08T01:28:54;101334.73;;;4.91;91.78
51147;BME280;37207;53.060;18.726;2023-04-08T01:31:24;101334.02;;;4.89;91.80
51147;BME280;37207;53.060;18.726;2023-04-08T01:33:51;101332.45;;;4.85;91.48
51147;BME280;37207;53.060;18.726;2023-04-08T01:36:18;101337.05;;;4.80;91.24
51147;BME280;37207;53.060;18.726;2023-04-08T01:38:46;101338.15;;;4.73;91.09
51147;BME280;37207;53.060;18.726;2023-04-08T01:41:16;101336.39;;;4.68;91.13
51147;BME280;37207;53.060;18.726;2023-04-08T01:43:43;101338.02;;;4.62;91.07
51147;BME280;37207;53.060;18.726;2023-04-08T01:46:10;101337.97;;;4.54;91.01
51147;BME280;37207;53.060;18.726;2023-04-08T01:48:37;101339.86;;;4.49;91.29
51147;BME280;37207;53.060;18.726;2023-04-08T01:51:05;101339.50;;;4.46;91.31
51147;BME280;37207;53.060;18.726;2023-04-08T01:53:34;101342.66;;;4.40;91.01
51147;BME280;37207;53.060;18.726;2023-04-08T01:56:04;101349.74;;;4.31;90.78
51147;BME280;37207;53.060;18.726;2023-04-08T01:58:37;101351.21;;;4.21;90.88
51147;BME280;37207;53.060;18.726;2023-04-08T02:01:09;101354.40;;;4.15;91.06
51147;BME280;37207;53.060;18.726;2023-04-08T02:03:37;101357.16;;;4.10;91.35
51147;BME280;37207;53.060;18.726;2023-04-08T02:06:04;101357.20;;;4.07;91.47
51147;BME280;37207;53.060;18.726;2023-04-08T02:08:33;101363.42;;;4.05;91.59
51147;BME280;37207;53.060;18.726;2023-04-08T02:10:59;101365.58;;;4.02;91.58
51147;BME280;37207;53.060;18.726;2023-04-08T02:13:26;101365.27;;;3.99;91.44
51147;BME280;37207;53.060;18.726;2023-04-08T02:15:58;101365.75;;;3.98;91.73
51147;BME280;37207;53.060;18.726;2023-04-08T02:18:26;101370.73;;;3.99;91.95
51147;BME280;37207;53.060;18.726;2023-04-08T02:21:08;101372.45;;;3.99;92.13
51147;BME280;37207;53.060;18.726;2023-04-08T02:23:37;101378.36;;;4.00;92.15
51147;BME280;37207;53.060;18.726;2023-04-08T02:26:07;101370.77;;;3.97;92.09
51147;BME280;37207;53.060;18.726;2023-04-08T02:28:38;101375.00;;;3.97;92.20
51147;BME280;37207;53.060;18.726;2023-04-08T02:31:04;101378.63;;;3.99;92.52
51147;BME280;37207;53.060;18.726;2023-04-08T02:33:33;101382.36;;;4.03;92.47
51147;BME280;37207;53.060;18.726;2023-04-08T02:36:01;101385.02;;;4.02;92.32
51147;BME280;37207;53.060;18.726;2023-04-08T02:38:28;101383.17;;;4.02;92.40
51147;BME280;37207;53.060;18.726;2023-04-08T02:40:55;101388.77;;;4.03;92.34
51147;BME280;37207;53.060;18.726;2023-04-08T02:43:21;101392.30;;;4.06;92.44
51147;BME280;37207;53.060;18.726;2023-04-08T02:45:51;101392.63;;;4.09;92.62
51147;BME280;37207;53.060;18.726;2023-04-08T02:48:17;101401.36;;;4.14;92.79
51147;BME280;37207;53.060;18.726;2023-04-08T02:50:43;101398.16;;;4.17;92.87
51147;BME280;37207;53.060;18.726;2023-04-08T02:53:09;101398.49;;;4.20;92.66
51147;BME280;37207;53.060;18.726;2023-04-08T02:55:35;101403.36;;;4.23;92.58
51147;BME280;37207;53.060;18.726;2023-04-08T02:58:01;101408.94;;;4.18;91.81
51147;BME280;37207;53.060;18.726;2023-04-08T03:00:27;101406.62;;;4.09;91.40
51147;BME280;37207;53.060;18.726;2023-04-08T03:02:52;101407.48;;;4.00;91.20
51147;BME280;37207;53.060;18.726;2023-04-08T03:05:18;101412.61;;;3.95;91.47
51147;BME280;37207;53.060;18.726;2023-04-08T03:07:45;101414.81;;;3.90;91.47
51147;BME280;37207;53.060;18.726;2023-04-08T03:10:10;101417.61;;;3.86;91.50
51147;BME280;37207;53.060;18.726;2023-04-08T03:12:36;101422.55;;;3.84;91.76
51147;BME280;37207;53.060;18.726;2023-04-08T03:15:03;101425.83;;;3.84;92.12
51147;BME280;37207;53.060;18.726;2023-04-08T03:17:29;101422.30;;;3.85;92.26
51147;BME280;37207;53.060;18.726;2023-04-08T03:19:58;101425.11;;;3.86;92.48
51147;BME280;37207;53.060;18.726;2023-04-08T03:22:24;101426.10;;;3.87;92.48
51147;BME280;37207;53.060;18.726;2023-04-08T03:24:49;101427.02;;;3.88;92.79
51147;BME280;37207;53.060;18.726;2023-04-08T03:27:15;101427.09;;;3.89;92.66
51147;BME280;37207;53.060;18.726;2023-04-08T03:29:41;101424.77;;;3.88;92.61
51147;BME280;37207;53.060;18.726;2023-04-08T03:32:07;101428.54;;;3.86;92.52
51147;BME280;37207;53.060;18.726;2023-04-08T03:34:34;101430.52;;;3.84;92.46
51147;BME280;37207;53.060;18.726;2023-04-08T03:37:00;101434.95;;;3.81;92.61
51147;BME280;37207;53.060;18.726;2023-04-08T03:39:26;101439.33;;;3.78;92.50
51147;BME280;37207;53.060;18.726;2023-04-08T03:41:52;101434.06;;;3.74;92.36
51147;BME280;37207;53.060;18.726;2023-04-08T03:44:18;101440.48;;;3.69;92.42
51147;BME280;37207;53.060;18.726;2023-04-08T03:46:44;101439.16;;;3.64;92.38
51147;BME280;37207;53.060;18.726;2023-04-08T03:49:10;101439.46;;;3.61;92.55
51147;BME280;37207;53.060;18.726;2023-04-08T03:51:36;101446.55;;;3.57;92.33
51147;BME280;37207;53.060;18.726;2023-04-08T03:54:02;101451.27;;;3.55;92.53
51147;BME280;37207;53.060;18.726;2023-04-08T03:56:28;101446.38;;;3.54;92.66
51147;BME280;37207;53.060;18.726;2023-04-08T03:58:54;101449.52;;;3.52;92.73
51147;BME280;37207;53.060;18.726;2023-04-08T04:01:19;101454.41;;;3.48;92.66
51147;BME280;37207;53.060;18.726;2023-04-08T04:03:45;101455.09;;;3.46;92.64
51147;BME280;37207;53.060;18.726;2023-04-08T04:06:11;101453.57;;;3.44;92.74
51147;BME280;37207;53.060;18.726;2023-04-08T04:08:37;101454.98;;;3.43;92.77
51147;BME280;37207;53.060;18.726;2023-04-08T04:11:03;101458.43;;;3.43;92.77
51147;BME280;37207;53.060;18.726;2023-04-08T04:13:29;101460.19;;;3.39;92.68
51147;BME280;37207;53.060;18.726;2023-04-08T04:15:55;101457.02;;;3.37;92.69
51147;BME280;37207;53.060;18.726;2023-04-08T04:18:22;101461.35;;;3.35;92.73
51147;BME280;37207;53.060;18.726;2023-04-08T04:20:48;101465.18;;;3.35;92.78
51147;BME280;37207;53.060;18.726;2023-04-08T04:23:13;101465.80;;;3.35;92.77
51147;BME280;37207;53.060;18.726;2023-04-08T04:25:40;101469.70;;;3.35;92.71
51147;BME280;37207;53.060;18.726;2023-04-08T04:28:06;101472.33;;;3.37;92.69
51147;BME280;37207;53.060;18.726;2023-04-08T04:30:36;101475.25;;;3.34;92.61
51147;BME280;37207;53.060;18.726;2023-04-08T04:33:02;101475.03;;;3.33;92.53
51147;BME280;37207;53.060;18.726;2023-04-08T04:35:28;101477.15;;;3.32;92.70
51147;BME280;37207;53.060;18.726;2023-04-08T04:37:54;101486.11;;;3.39;93.14
51147;BME280;37207;53.060;18.726;2023-04-08T04:40:20;101491.11;;;3.48;93.44
51147;BME280;37207;53.060;18.726;2023-04-08T04:42:46;101494.13;;;3.55;93.34
51147;BME280;37207;53.060;18.726;2023-04-08T04:45:12;101495.83;;;3.56;92.89
51147;BME280;37207;53.060;18.726;2023-04-08T04:47:39;101493.45;;;3.53;92.55
51147;BME280;37207;53.060;18.726;2023-04-08T04:50:05;101496.80;;;3.48;92.29
51147;BME280;37207;53.060;18.726;2023-04-08T04:52:31;101495.00;;;3.48;92.34
51147;BME280;37207;53.060;18.726;2023-04-08T04:54:57;101497.54;;;3.46;92.45
51147;BME280;37207;53.060;18.726;2023-04-08T04:57:23;101497.57;;;3.45;92.38
51147;BME280;37207;53.060;18.726;2023-04-08T04:59:49;101499.45;;;3.44;92.52
51147;BME280;37207;53.060;18.726;2023-04-08T05:02:15;101500.58;;;3.42;92.50
51147;BME280;37207;53.060;18.726;2023-04-08T05:04:41;101504.95;;;3.42;92.54
51147;BME280;37207;53.060;18.726;2023-04-08T05:07:07;101508.27;;;3.45;92.84
51147;BME280;37207;53.060;18.726;2023-04-08T05:09:33;101504.77;;;3.53;92.93
51147;BME280;37207;53.060;18.726;2023-04-08T05:11:59;101512.18;;;3.67;93.15
51147;BME280;37207;53.060;18.726;2023-04-08T05:14:28;101512.89;;;3.81;93.03
51147;BME280;37207;53.060;18.726;2023-04-08T05:16:55;101518.38;;;3.89;92.91
51147;BME280;37207;53.060;18.726;2023-04-08T05:19:22;101517.19;;;3.99;92.80
51147;BME280;37207;53.060;18.726;2023-04-08T05:21:47;101521.08;;;4.04;92.72
51147;BME280;37207;53.060;18.726;2023-04-08T05:24:13;101521.82;;;4.07;92.68
51147;BME280;37207;53.060;18.726;2023-04-08T05:26:39;101524.09;;;4.15;92.81
51147;BME280;37207;53.060;18.726;2023-04-08T05:29:05;101525.56;;;4.23;92.66
51147;BME280;37207;53.060;18.726;2023-04-08T05:31:31;101530.74;;;4.26;92.78
51147;BME280;37207;53.060;18.726;2023-04-08T05:33:57;101530.69;;;4.30;92.59
51147;BME280;37207;53.060;18.726;2023-04-08T05:36:23;101529.25;;;4.35;92.64
51147;BME280;37207;53.060;18.726;2023-04-08T05:38:49;101534.23;;;4.41;92.75
51147;BME280;37207;53.060;18.726;2023-04-08T05:41:15;101539.92;;;4.45;92.46
51147;BME280;37207;53.060;18.726;2023-04-08T05:43:41;101542.02;;;4.53;92.79
51147;BME280;37207;53.060;18.726;2023-04-08T05:46:08;101539.48;;;4.64;92.55
51147;BME280;37207;53.060;18.726;2023-04-08T05:48:35;101540.55;;;4.72;92.64
51147;BME280;37207;53.060;18.726;2023-04-08T05:51:01;101541.31;;;4.89;92.49
51147;BME280;37207;53.060;18.726;2023-04-08T05:53:27;101546.15;;;5.14;92.25
51147;BME280;37207;53.060;18.726;2023-04-08T05:55:53;101551.23;;;5.22;91.93
51147;BME280;37207;53.060;18.726;2023-04-08T05:58:18;101552.52;;;5.23;91.72
51147;BME280;37207;53.060;18.726;2023-04-08T06:00:44;101555.85;;;5.24;91.75
51147;BME280;37207;53.060;18.726;2023-04-08T06:03:11;101556.23;;;5.26;91.51
51147;BME280;37207;53.060;18.726;2023-04-08T06:05:36;101557.10;;;5.30;91.70
51147;BME280;37207;53.060;18.726;2023-04-08T06:08:02;101560.74;;;5.37;91.75
51147;BME280;37207;53.060;18.726;2023-04-08T06:10:28;101565.80;;;5.46;91.78
51147;BME280;37207;53.060;18.726;2023-04-08T06:12:54;101566.36;;;5.52;91.61
51147;BME280;37207;53.060;18.726;2023-04-08T06:15:20;101566.45;;;5.58;91.39
51147;BME280;37207;53.060;18.726;2023-04-08T06:17:46;101566.17;;;5.64;91.27
51147;BME280;37207;53.060;18.726;2023-04-08T06:20:12;101568.93;;;5.69;91.21
51147;BME280;37207;53.060;18.726;2023-04-08T06:22:38;101567.02;;;5.77;91.27
51147;BME280;37207;53.060;18.726;2023-04-08T06:25:04;101571.25;;;5.90;91.25
51147;BME280;37207;53.060;18.726;2023-04-08T06:27:30;101573.40;;;6.20;90.70
51147;BME280;37207;53.060;18.726;2023-04-08T06:29:56;101574.88;;;6.59;90.05
51147;BME280;37207;53.060;18.726;2023-04-08T06:32:22;101581.06;;;6.95;89.69
51147;BME280;37207;53.060;18.726;2023-04-08T06:34:48;101581.86;;;7.00;88.67
51147;BME280;37207;53.060;18.726;2023-04-08T06:37:14;101583.95;;;6.96;88.22
51147;BME280;37207;53.060;18.726;2023-04-08T06:39:40;101583.45;;;7.05;88.17
51147;BME280;37207;53.060;18.726;2023-04-08T06:42:06;101591.31;;;7.66;88.05
51147;BME280;37207;53.060;18.726;2023-04-08T06:44:45;101592.31;;;9.17;86.14
51147;BME280;37207;53.060;18.726;2023-04-08T06:47:11;101590.74;;;9.63;84.35
51147;BME280;37207;53.060;18.726;2023-04-08T06:49:37;101593.23;;;10.04;82.53
51147;BME280;37207;53.060;18.726;2023-04-08T06:52:02;101595.18;;;10.21;82.36
51147;BME280;37207;53.060;18.726;2023-04-08T06:54:28;101599.02;;;11.01;81.77
51147;BME280;37207;53.060;18.726;2023-04-08T06:56:54;101602.60;;;12.55;80.10
51147;BME280;37207;53.060;18.726;2023-04-08T06:59:20;101603.61;;;13.86;77.32
51147;BME280;37207;53.060;18.726;2023-04-08T07:01:46;101605.67;;;14.77;76.07
51147;BME280;37207;53.060;18.726;2023-04-08T07:04:12;101606.02;;;15.34;73.03
51147;BME280;37207;53.060;18.726;2023-04-08T07:06:38;101610.11;;;15.13;72.25
51147;BME280;37207;53.060;18.726;2023-04-08T07:09:04;101611.38;;;14.86;70.16
51147;BME280;37207;53.060;18.726;2023-04-08T07:11:30;101620.02;;;14.06;69.74
51147;BME280;37207;53.060;18.726;2023-04-08T07:13:56;101625.08;;;13.25;69.24
51147;BME280;37207;53.060;18.726;2023-04-08T07:16:21;101625.53;;;12.71;70.02
51147;BME280;37207;53.060;18.726;2023-04-08T07:18:47;101628.79;;;12.54;70.00
51147;BME280;37207;53.060;18.726;2023-04-08T07:21:13;101627.88;;;11.93;69.45
51147;BME280;37207;53.060;18.726;2023-04-08T07:23:39;101631.99;;;11.44;70.32
51147;BME280;37207;53.060;18.726;2023-04-08T07:26:05;101634.08;;;11.22;70.75
51147;BME280;37207;53.060;18.726;2023-04-08T07:28:31;101635.08;;;11.04;71.20
51147;BME280;37207;53.060;18.726;2023-04-08T07:31:10;101638.59;;;11.10;71.84
51147;BME280;37207;53.060;18.726;2023-04-08T07:33:36;101638.52;;;10.99;70.79
51147;BME280;37207;53.060;18.726;2023-04-08T07:36:02;101639.73;;;10.95;71.64
51147;BME280;37207;53.060;18.726;2023-04-08T07:38:28;101639.53;;;10.98;71.16
51147;BME280;37207;53.060;18.726;2023-04-08T07:40:54;101647.41;;;10.91;71.59
51147;BME280;37207;53.060;18.726;2023-04-08T07:43:20;101647.49;;;10.96;71.51
51147;BME280;37207;53.060;18.726;2023-04-08T07:45:46;101649.09;;;11.17;71.98
51147;BME280;37207;53.060;18.726;2023-04-08T07:48:12;101648.34;;;11.50;72.57
51147;BME280;37207;53.060;18.726;2023-04-08T07:50:38;101647.67;;;11.78;71.76
51147;BME280;37207;53.060;18.726;2023-04-08T07:53:04;101650.44;;;11.89;71.04
51147;BME280;37207;53.060;18.726;2023-04-08T07:55:33;101651.10;;;11.99;70.73
51147;BME280;37207;53.060;18.726;2023-04-08T07:58:00;101644.47;;;12.04;70.41
51147;BME280;37207;53.060;18.726;2023-04-08T08:00:27;101646.14;;;12.16;70.50
51147;BME280;37207;53.060;18.726;2023-04-08T08:02:54;101648.29;;;12.13;70.02
51147;BME280;37207;53.060;18.726;2023-04-08T08:05:21;101653.48;;;12.06;69.40
51147;BME280;37207;53.060;18.726;2023-04-08T08:07:47;101656.37;;;11.91;69.06
51147;BME280;37207;53.060;18.726;2023-04-08T08:10:12;101657.98;;;11.76;68.93
51147;BME280;37207;53.060;18.726;2023-04-08T08:12:38;101661.81;;;11.70;69.26
51147;BME280;37207;53.060;18.726;2023-04-08T08:15:04;101660.48;;;11.72;69.05
51147;BME280;37207;53.060;18.726;2023-04-08T08:17:30;101661.55;;;11.76;69.06
51147;BME280;37207;53.060;18.726;2023-04-08T08:19:59;101663.94;;;11.87;68.90
51147;BME280;37207;53.060;18.726;2023-04-08T08:22:26;101666.00;;;12.05;69.52
51147;BME280;37207;53.060;18.726;2023-04-08T08:24:56;101667.89;;;12.20;68.80
51147;BME280;37207;53.060;18.726;2023-04-08T08:27:22;101670.72;;;12.38;68.82
51147;BME280;37207;53.060;18.726;2023-04-08T08:29:48;101668.14;;;12.62;68.82
51147;BME280;37207;53.060;18.726;2023-04-08T08:32:14;101668.95;;;12.65;67.57
51147;BME280;37207;53.060;18.726;2023-04-08T08:34:40;101668.08;;;12.64;67.62
51147;BME280;37207;53.060;18.726;2023-04-08T08:37:06;101669.65;;;12.75;67.93
51147;BME280;37207;53.060;18.726;2023-04-08T08:39:32;101674.14;;;13.07;68.02
51147;BME280;37207;53.060;18.726;2023-04-08T08:41:58;101670.38;;;13.33;66.99
51147;BME280;37207;53.060;18.726;2023-04-08T08:44:24;101669.99;;;13.59;67.49
51147;BME280;37207;53.060;18.726;2023-04-08T08:46:50;101671.73;;;13.92;67.86
51147;BME280;37207;53.060;18.726;2023-04-08T08:49:17;101670.86;;;14.17;67.37
51147;BME280;37207;53.060;18.726;2023-04-08T08:51:44;101663.98;;;14.28;65.35
51147;BME280;37207;53.060;18.726;2023-04-08T08:54:12;101664.48;;;14.34;66.39
51147;BME280;37207;53.060;18.726;2023-04-08T08:56:39;101666.77;;;14.48;66.80
51147;BME280;37207;53.060;18.726;2023-04-08T08:59:08;101669.36;;;14.56;64.16
51147;BME280;37207;53.060;18.726;2023-04-08T09:01:36;101677.31;;;14.70;64.22
51147;BME280;37207;53.060;18.726;2023-04-08T09:04:14;101674.72;;;14.92;63.30
51147;BME280;37207;53.060;18.726;2023-04-08T09:06:45;101677.35;;;14.97;63.23
51147;BME280;37207;53.060;18.726;2023-04-08T09:09:12;101677.63;;;15.04;63.85
51147;BME280;37207;53.060;18.726;2023-04-08T09:11:40;101677.64;;;15.17;63.64
51147;BME280;37207;53.060;18.726;2023-04-08T09:14:19;101679.52;;;15.45;63.21
51147;BME280;37207;53.060;18.726;2023-04-08T09:16:46;101684.59;;;15.76;62.25
51147;BME280;37207;53.060;18.726;2023-04-08T09:19:12;101686.72;;;15.69;61.59
51147;BME280;37207;53.060;18.726;2023-04-08T09:21:39;101683.27;;;15.97;61.01
51147;BME280;37207;53.060;18.726;2023-04-08T09:24:09;101686.48;;;16.60;60.95
51147;BME280;37207;53.060;18.726;2023-04-08T09:26:51;101689.45;;;17.00;59.56
51147;BME280;37207;53.060;18.726;2023-04-08T09:29:17;101687.52;;;17.11;59.41
51147;BME280;37207;53.060;18.726;2023-04-08T09:31:43;101685.59;;;17.21;60.06
51147;BME280;37207;53.060;18.726;2023-04-08T09:34:13;101681.62;;;17.20;59.97
51147;BME280;37207;53.060;18.726;2023-04-08T09:36:42;101681.46;;;17.16;59.53
51147;BME280;37207;53.060;18.726;2023-04-08T09:39:09;101685.10;;;17.01;58.14
51147;BME280;37207;53.060;18.726;2023-04-08T09:41:37;101685.15;;;16.95;59.18
51147;BME280;37207;53.060;18.726;2023-04-08T09:44:08;101681.29;;;16.94;59.97
51147;BME280;37207;53.060;18.726;2023-04-08T09:46:52;101677.89;;;16.94;59.39
51147;BME280;37207;53.060;18.726;2023-04-08T09:52:06;101679.55;;;16.93;57.86
51147;BME280;37207;53.060;18.726;2023-04-08T09:54:54;101681.93;;;16.90;57.01
51147;BME280;37207;53.060;18.726;2023-04-08T10:00:18;101675.63;;;17.13;57.18
51147;BME280;37207;53.060;18.726;2023-04-08T10:05:23;101674.27;;;17.34;55.46
51147;BME280;37207;53.060;18.726;2023-04-08T10:07:50;101677.79;;;17.75;56.58
51147;BME280;37207;53.060;18.726;2023-04-08T10:10:16;101674.88;;;18.28;55.36
51147;BME280;37207;53.060;18.726;2023-04-08T10:12:43;101673.21;;;19.01;55.62
51147;BME280;37207;53.060;18.726;2023-04-08T10:15:26;101675.91;;;20.09;54.68
51147;BME280;37207;53.060;18.726;2023-04-08T10:17:53;101671.98;;;21.48;52.24
51147;BME280;37207;53.060;18.726;2023-04-08T10:23:14;101671.10;;;23.42;45.29
51147;BME280;37207;53.060;18.726;2023-04-08T10:25:47;101671.11;;;24.31;44.23
51147;BME280;37207;53.060;18.726;2023-04-08T10:30:44;101669.23;;;25.84;42.76
51147;BME280;37207;53.060;18.726;2023-04-08T10:33:12;101667.02;;;26.55;41.96
51147;BME280;37207;53.060;18.726;2023-04-08T10:35:43;101663.44;;;27.18;40.03
51147;BME280;37207;53.060;18.726;2023-04-08T10:38:15;101664.11;;;27.66;39.66
51147;BME280;37207;53.060;18.726;2023-04-08T10:40:42;101660.61;;;28.05;38.25
51147;BME280;37207;53.060;18.726;2023-04-08T10:43:10;101658.51;;;28.29;38.19
51147;BME280;37207;53.060;18.726;2023-04-08T10:45:38;101659.70;;;28.39;35.97
51147;BME280;37207;53.060;18.726;2023-04-08T10:50:57;101658.77;;;27.63;37.33
51147;BME280;37207;53.060;18.726;2023-04-08T10:55:51;101656.09;;;26.82;37.14
51147;BME280;37207;53.060;18.726;2023-04-08T10:58:17;101654.58;;;26.36;39.07
51147;BME280;37207;53.060;18.726;2023-04-08T11:00:43;101654.23;;;25.84;38.23
51147;BME280;37207;53.060;18.726;2023-04-08T11:03:09;101658.88;;;25.36;39.67
51147;BME280;37207;53.060;18.726;2023-04-08T11:05:37;101657.17;;;24.87;40.00
51147;BME280;37207;53.060;18.726;2023-04-08T11:08:04;101654.23;;;24.29;40.22
51147;BME280;37207;53.060;18.726;2023-04-08T11:10:36;101657.09;;;23.75;41.70
51147;BME280;37207;53.060;18.726;2023-04-08T11:13:06;101658.31;;;23.37;42.44
51147;BME280;37207;53.060;18.726;2023-04-08T11:15:32;101654.80;;;23.01;41.19
51147;BME280;37207;53.060;18.726;2023-04-08T11:18:02;101655.10;;;22.63;41.78
51147;BME280;37207;53.060;18.726;2023-04-08T11:20:28;101653.95;;;22.36;42.62
51147;BME280;37207;53.060;18.726;2023-04-08T11:22:54;101657.66;;;22.12;42.73
51147;BME280;37207;53.060;18.726;2023-04-08T11:25:20;101654.73;;;21.84;44.16
51147;BME280;37207;53.060;18.726;2023-04-08T11:27:47;101653.72;;;21.64;44.37
51147;BME280;37207;53.060;18.726;2023-04-08T11:30:14;101653.60;;;21.54;44.75
51147;BME280;37207;53.060;18.726;2023-04-08T11:32:40;101651.38;;;21.38;44.66
51147;BME280;37207;53.060;18.726;2023-04-08T11:35:06;101649.61;;;21.36;44.98
51147;BME280;37207;53.060;18.726;2023-04-08T11:37:37;101654.05;;;21.28;44.25
51147;BME280;37207;53.060;18.726;2023-04-08T11:40:10;101648.80;;;21.13;44.44
51147;BME280;37207;53.060;18.726;2023-04-08T11:42:38;101651.40;;;21.12;45.36
51147;BME280;37207;53.060;18.726;2023-04-08T11:45:11;101652.81;;;21.28;45.00
51147;BME280;37207;53.060;18.726;2023-04-08T11:47:38;101652.59;;;21.27;44.94
51147;BME280;37207;53.060;18.726;2023-04-08T11:50:05;101654.30;;;21.33;44.81
51147;BME280;37207;53.060;18.726;2023-04-08T11:52:50;101654.86;;;21.40;45.64
51147;BME280;37207;53.060;18.726;2023-04-08T11:55:32;101655.91;;;21.68;44.93
51147;BME280;37207;53.060;18.726;2023-04-08T11:58:02;101654.99;;;21.87;44.41
51147;BME280;37207;53.060;18.726;2023-04-08T12:00:29;101653.77;;;22.17;44.21
51147;BME280;37207;53.060;18.726;2023-04-08T12:02:56;101653.38;;;22.58;43.75
51147;BME280;37207;53.060;18.726;2023-04-08T12:05:22;101652.48;;;23.03;43.09
51147;BME280;37207;53.060;18.726;2023-04-08T12:07:48;101657.38;;;23.54;42.25
51147;BME280;37207;53.060;18.726;2023-04-08T12:10:14;101649.52;;;23.95;42.04
51147;BME280;37207;53.060;18.726;2023-04-08T12:12:40;101643.55;;;24.31;40.60
51147;BME280;37207;53.060;18.726;2023-04-08T12:15:07;101645.82;;;24.57;39.66
51147;BME280;37207;53.060;18.726;2023-04-08T12:17:33;101645.48;;;24.84;39.42
51147;BME280;37207;53.060;18.726;2023-04-08T12:19:59;101643.41;;;25.15;39.76
51147;BME280;37207;53.060;18.726;2023-04-08T12:22:26;101639.84;;;25.43;37.81
51147;BME280;37207;53.060;18.726;2023-04-08T12:24:52;101637.68;;;25.52;37.55
51147;BME280;37207;53.060;18.726;2023-04-08T12:27:18;101636.14;;;25.63;37.53
51147;BME280;37207;53.060;18.726;2023-04-08T12:29:44;101632.55;;;25.73;37.78
51147;BME280;37207;53.060;18.726;2023-04-08T12:32:11;101639.23;;;25.95;37.34
51147;BME280;37207;53.060;18.726;2023-04-08T12:34:37;101636.70;;;25.96;36.53
51147;BME280;37207;53.060;18.726;2023-04-08T12:37:02;101633.32;;;26.11;37.33
51147;BME280;37207;53.060;18.726;2023-04-08T12:39:28;101630.39;;;26.43;37.13
51147;BME280;37207;53.060;18.726;2023-04-08T12:41:54;101625.48;;;26.61;36.01
51147;BME280;37207;53.060;18.726;2023-04-08T12:44:21;101627.52;;;26.62;35.70
51147;BME280;37207;53.060;18.726;2023-04-08T12:46:47;101621.56;;;26.63;36.67
51147;BME280;37207;53.060;18.726;2023-04-08T12:49:13;101624.75;;;26.76;37.13
51147;BME280;37207;53.060;18.726;2023-04-08T12:51:39;101624.27;;;26.65;35.71
51147;BME280;37207;53.060;18.726;2023-04-08T12:54:05;101620.50;;;26.58;36.95
51147;BME280;37207;53.060;18.726;2023-04-08T12:56:31;101622.82;;;26.36;34.64
51147;BME280;37207;53.060;18.726;2023-04-08T12:58:58;101622.66;;;25.81;34.80
51147;BME280;37207;53.060;18.726;2023-04-08T13:01:24;101626.56;;;25.59;35.93
51147;BME280;37207;53.060;18.726;2023-04-08T13:03:50;101621.43;;;25.43;36.74
51147;BME280;37207;53.060;18.726;2023-04-08T13:06:16;101621.20;;;25.36;36.51